createdAt,value
2017-10-23T00:00:36.125Z,0.00
2017-10-23T00:01:36.169Z,0.00
2017-10-23T00:02:36.290Z,0.00
2017-10-23T00:03:36.269Z,0.00
2017-10-23T00:04:36.306Z,0.00
2017-10-23T00:05:36.347Z,0.00
2017-10-23T00:06:36.391Z,0.00
2017-10-23T00:07:36.518Z,0.00
2017-10-23T00:08:36.488Z,0.00
2017-10-23T00:09:36.532Z,0.00
2017-10-23T00:10:36.573Z,0.00
2017-10-23T00:11:36.622Z,0.00
2017-10-23T00:12:36.747Z,0.00
2017-10-23T00:13:36.710Z,0.00
2017-10-23T00:14:36.755Z,0.00
2017-10-23T00:15:36.802Z,0.00
2017-10-23T00:16:36.851Z,0.00
2017-10-23T00:17:36.958Z,0.00
2017-10-23T00:18:37.003Z,0.00
2017-10-23T00:19:36.986Z,0.00
2017-10-23T00:20:37.029Z,0.00
2017-10-23T00:21:37.076Z,0.00
2017-10-23T00:22:37.118Z,0.00
2017-10-23T00:23:37.227Z,0.00
2017-10-23T00:24:37.214Z,0.00
2017-10-23T00:25:37.258Z,0.00
2017-10-23T00:26:37.310Z,0.00
2017-10-23T00:27:37.345Z,0.00
2017-10-23T00:28:37.459Z,0.00
2017-10-23T00:29:37.437Z,0.00
2017-10-23T00:30:37.480Z,0.00
2017-10-23T00:31:37.527Z,0.00
2017-10-23T00:32:37.579Z,0.00
2017-10-23T00:33:37.700Z,0.00
2017-10-23T00:34:37.664Z,0.00
2017-10-23T00:35:37.711Z,0.00
2017-10-23T00:36:37.752Z,0.00
2017-10-23T00:37:37.804Z,0.00
2017-10-23T00:38:37.906Z,0.00
2017-10-23T00:39:37.953Z,0.00
2017-10-23T00:40:37.934Z,0.00
2017-10-23T00:41:37.989Z,0.00
2017-10-23T00:42:38.027Z,0.00
2017-10-23T00:43:38.072Z,0.00
2017-10-23T00:44:38.181Z,0.00
2017-10-23T00:45:38.162Z,0.00
2017-10-23T00:46:38.208Z,0.00
2017-10-23T00:47:38.250Z,0.00
2017-10-23T00:48:38.302Z,0.00
2017-10-23T00:49:38.407Z,0.00
2017-10-23T00:50:38.388Z,0.00
2017-10-23T00:51:39.121Z,0.00
2017-10-23T00:52:38.481Z,0.00
2017-10-23T00:53:38.543Z,0.00
2017-10-23T00:54:38.651Z,0.00
2017-10-23T00:55:38.613Z,0.00
2017-10-23T00:56:38.660Z,0.00
2017-10-23T00:57:38.709Z,0.00
2017-10-23T00:58:38.747Z,0.00
2017-10-23T00:59:38.876Z,0.00
2017-10-23T01:00:38.840Z,0.00
2017-10-23T01:01:38.906Z,0.00
2017-10-23T01:02:38.930Z,0.00
2017-10-23T01:03:38.975Z,0.00
2017-10-23T01:04:39.083Z,0.00
2017-10-23T01:05:39.133Z,0.00
2017-10-23T01:06:39.108Z,0.00
2017-10-23T01:07:39.155Z,0.00
2017-10-23T01:08:39.201Z,0.00
2017-10-23T01:09:39.245Z,0.00
2017-10-23T01:10:39.358Z,0.00
2017-10-23T01:11:39.336Z,0.00
2017-10-23T01:12:39.379Z,0.00
2017-10-23T01:13:39.424Z,0.00
2017-10-23T01:14:39.477Z,0.00
2017-10-23T01:15:39.597Z,0.00
2017-10-23T01:16:39.562Z,0.00
2017-10-23T01:17:39.605Z,0.00
2017-10-23T01:18:39.649Z,0.00
2017-10-23T01:19:39.696Z,0.00
2017-10-23T01:20:39.806Z,0.00
2017-10-23T01:21:39.851Z,0.00
2017-10-23T01:22:39.830Z,0.00
2017-10-23T01:23:39.878Z,0.00
2017-10-23T01:24:39.924Z,0.00
2017-10-23T01:25:39.969Z,0.00
2017-10-23T01:26:40.076Z,0.00
2017-10-23T01:27:40.056Z,0.00
2017-10-23T01:28:40.101Z,0.00
2017-10-23T01:29:40.147Z,0.00
2017-10-23T01:30:40.191Z,0.00
2017-10-23T01:31:40.304Z,0.00
2017-10-23T01:32:40.286Z,0.00
2017-10-23T01:33:40.327Z,0.00
2017-10-23T01:34:40.372Z,0.00
2017-10-23T01:35:40.416Z,0.00
2017-10-23T01:36:40.530Z,0.00
2017-10-23T01:37:40.507Z,0.00
2017-10-23T01:38:40.551Z,0.00
2017-10-23T01:39:40.600Z,0.00
2017-10-23T01:40:40.646Z,0.00
2017-10-23T01:41:40.769Z,0.00
2017-10-23T01:42:40.744Z,0.00
2017-10-23T01:43:40.776Z,0.00
2017-10-23T01:44:40.824Z,0.00
2017-10-23T01:45:40.867Z,0.00
2017-10-23T01:46:40.988Z,0.00
2017-10-23T01:47:41.022Z,0.00
2017-10-23T01:48:41.004Z,0.00
2017-10-23T01:49:41.049Z,0.00
2017-10-23T01:50:41.092Z,0.00
2017-10-23T01:51:41.139Z,0.00
2017-10-23T01:52:41.269Z,0.00
2017-10-23T01:53:41.230Z,0.00
2017-10-23T01:54:41.274Z,0.00
2017-10-23T01:55:41.331Z,0.00
2017-10-23T01:56:41.365Z,0.00
2017-10-23T01:57:41.485Z,0.00
2017-10-23T01:58:41.456Z,0.00
2017-10-23T01:59:41.499Z,0.00
2017-10-23T02:00:41.544Z,0.00
2017-10-23T02:01:41.591Z,0.00
2017-10-23T02:02:41.701Z,0.00
2017-10-23T02:03:41.742Z,0.00
2017-10-23T02:04:41.725Z,0.00
2017-10-23T02:05:41.773Z,0.00
2017-10-23T02:06:41.818Z,0.00
2017-10-23T02:07:41.860Z,0.00
2017-10-23T02:08:41.970Z,0.00
2017-10-23T02:09:41.950Z,0.00
2017-10-23T02:10:41.997Z,0.00
2017-10-23T02:11:42.041Z,0.00
2017-10-23T02:12:42.088Z,0.00
2017-10-23T02:13:42.199Z,0.00
2017-10-23T02:14:42.178Z,0.00
2017-10-23T02:15:42.225Z,0.00
2017-10-23T02:16:42.264Z,0.00
2017-10-23T02:17:42.316Z,0.00
2017-10-23T02:18:42.437Z,0.00
2017-10-23T02:19:42.404Z,0.00
2017-10-23T02:20:42.447Z,0.00
2017-10-23T02:21:42.497Z,0.00
2017-10-23T02:22:42.544Z,0.00
2017-10-23T02:23:42.646Z,0.00
2017-10-23T02:24:42.692Z,0.00
2017-10-23T02:25:42.676Z,0.00
2017-10-23T02:26:42.719Z,0.00
2017-10-23T02:27:42.764Z,0.00
2017-10-23T02:28:42.811Z,0.00
2017-10-23T02:29:42.916Z,0.00
2017-10-23T02:30:42.905Z,0.00
2017-10-23T02:31:42.946Z,0.00
2017-10-23T02:32:42.998Z,0.00
2017-10-23T02:33:43.039Z,0.00
2017-10-23T02:34:43.158Z,0.00
2017-10-23T02:35:43.129Z,0.00
2017-10-23T02:36:43.171Z,0.00
2017-10-23T02:37:43.218Z,0.00
2017-10-23T02:38:43.264Z,0.00
2017-10-23T02:39:44.125Z,0.00
2017-10-23T02:40:43.415Z,0.00
2017-10-23T02:41:43.397Z,0.00
2017-10-23T02:42:43.443Z,0.00
2017-10-23T02:43:43.487Z,0.00
2017-10-23T02:44:43.534Z,0.00
2017-10-23T02:45:43.640Z,0.00
2017-10-23T02:46:43.626Z,0.00
2017-10-23T02:47:43.668Z,0.00
2017-10-23T02:48:43.719Z,0.00
2017-10-23T02:49:43.760Z,0.00
2017-10-23T02:50:43.870Z,0.00
2017-10-23T02:51:43.850Z,0.00
2017-10-23T02:52:43.897Z,0.00
2017-10-23T02:53:43.941Z,0.00
2017-10-23T02:54:43.988Z,0.00
2017-10-23T02:55:44.095Z,0.00
2017-10-23T02:56:44.075Z,0.00
2017-10-23T02:57:44.122Z,0.00
2017-10-23T02:58:44.166Z,0.00
2017-10-23T02:59:44.210Z,0.00
2017-10-23T03:00:44.321Z,0.00
2017-10-23T03:01:44.303Z,0.00
2017-10-23T03:02:44.348Z,0.00
2017-10-23T03:03:44.391Z,0.00
2017-10-23T03:04:44.439Z,0.00
2017-10-23T03:05:44.548Z,0.00
2017-10-23T03:06:44.529Z,0.00
2017-10-23T03:07:44.574Z,0.00
2017-10-23T03:08:44.628Z,0.00
2017-10-23T03:09:44.669Z,0.00
2017-10-23T03:10:44.793Z,0.00
2017-10-23T03:11:44.754Z,0.00
2017-10-23T03:12:44.804Z,0.00
2017-10-23T03:13:44.845Z,0.00
2017-10-23T03:14:44.891Z,0.00
2017-10-23T03:15:44.999Z,0.00
2017-10-23T03:16:45.044Z,0.00
2017-10-23T03:17:45.026Z,0.00
2017-10-23T03:18:45.070Z,0.00
2017-10-23T03:19:45.114Z,0.00
2017-10-23T03:20:45.241Z,0.00
2017-10-23T03:21:45.207Z,0.00
2017-10-23T03:22:45.252Z,0.00
2017-10-23T03:23:45.301Z,0.00
2017-10-23T03:24:45.339Z,0.00
2017-10-23T03:25:45.464Z,0.00
2017-10-23T03:26:45.981Z,0.00
2017-10-23T03:27:45.474Z,0.00
2017-10-23T03:28:45.522Z,0.00
2017-10-23T03:29:45.571Z,0.00
2017-10-23T03:30:45.695Z,0.00
2017-10-23T03:31:45.659Z,0.00
2017-10-23T03:32:45.706Z,0.00
2017-10-23T03:33:45.747Z,0.00
2017-10-23T03:34:45.794Z,0.00
2017-10-23T03:35:45.905Z,0.00
2017-10-23T03:36:45.882Z,0.00
2017-10-23T03:37:45.926Z,0.00
2017-10-23T03:38:45.969Z,0.00
2017-10-23T03:39:46.016Z,0.00
2017-10-23T03:40:46.129Z,0.00
2017-10-23T03:41:46.185Z,0.00
2017-10-23T03:42:46.151Z,0.00
2017-10-23T03:43:46.195Z,0.00
2017-10-23T03:44:46.241Z,0.00
2017-10-23T03:45:46.286Z,0.00
2017-10-23T03:46:46.393Z,0.00
2017-10-23T03:47:46.376Z,0.00
2017-10-23T03:48:46.421Z,0.00
2017-10-23T03:49:46.467Z,0.00
2017-10-23T03:50:46.511Z,0.00
2017-10-23T03:51:46.617Z,0.00
2017-10-23T03:52:46.599Z,0.00
2017-10-23T03:53:46.646Z,0.00
2017-10-23T03:54:46.693Z,0.00
2017-10-23T03:55:46.734Z,0.00
2017-10-23T03:56:46.855Z,0.00
2017-10-23T03:57:46.827Z,0.00
2017-10-23T03:58:46.883Z,0.00
2017-10-23T03:59:46.915Z,0.00
2017-10-23T04:00:46.960Z,0.00
2017-10-23T04:01:47.088Z,0.00
2017-10-23T04:02:47.050Z,0.00
2017-10-23T04:03:47.095Z,0.00
2017-10-23T04:04:47.141Z,0.00
2017-10-23T04:05:47.185Z,0.00
2017-10-23T04:06:47.305Z,0.00
2017-10-23T04:07:47.273Z,0.00
2017-10-23T04:08:47.320Z,0.00
2017-10-23T04:09:47.366Z,0.00
2017-10-23T04:10:47.413Z,0.00
2017-10-23T04:11:47.543Z,0.00
2017-10-23T04:12:47.498Z,0.00
2017-10-23T04:13:47.544Z,0.00
2017-10-23T04:14:47.589Z,0.00
2017-10-23T04:15:47.635Z,0.00
2017-10-23T04:16:47.744Z,0.00
2017-10-23T04:17:47.789Z,0.00
2017-10-23T04:18:47.768Z,0.00
2017-10-23T04:19:47.817Z,0.00
2017-10-23T04:20:47.858Z,0.00
2017-10-23T04:21:47.903Z,0.00
2017-10-23T04:22:48.016Z,0.00
2017-10-23T04:23:47.996Z,0.00
2017-10-23T04:24:48.041Z,0.00
2017-10-23T04:25:48.085Z,0.00
2017-10-23T04:26:48.127Z,0.00
2017-10-23T04:27:48.238Z,0.00
2017-10-23T04:28:48.218Z,0.00
2017-10-23T04:29:48.263Z,0.00
2017-10-23T04:30:48.307Z,0.00
2017-10-23T04:31:48.353Z,0.00
2017-10-23T04:32:48.482Z,0.00
2017-10-23T04:33:48.444Z,0.00
2017-10-23T04:34:48.487Z,0.00
2017-10-23T04:35:48.535Z,0.00
2017-10-23T04:36:48.580Z,0.00
2017-10-23T04:37:48.689Z,0.00
2017-10-23T04:38:48.666Z,0.00
2017-10-23T04:39:48.716Z,0.00
2017-10-23T04:40:48.757Z,0.00
2017-10-23T04:41:48.804Z,0.00
2017-10-23T04:42:48.930Z,0.00
2017-10-23T04:43:48.892Z,0.00
2017-10-23T04:44:48.939Z,0.00
2017-10-23T04:45:48.983Z,0.00
2017-10-23T04:46:49.027Z,0.00
2017-10-23T04:47:49.137Z,0.00
2017-10-23T04:48:49.181Z,0.00
2017-10-23T04:49:49.161Z,0.00
2017-10-23T04:50:49.986Z,0.00
2017-10-23T04:51:49.253Z,0.00
2017-10-23T04:52:49.296Z,0.00
2017-10-23T04:53:49.407Z,0.00
2017-10-23T04:54:49.390Z,0.00
2017-10-23T04:55:49.432Z,0.00
2017-10-23T04:56:49.479Z,0.00
2017-10-23T04:57:49.522Z,0.00
2017-10-23T04:58:49.636Z,0.00
2017-10-23T04:59:49.615Z,0.00
2017-10-23T05:00:49.658Z,0.00
2017-10-23T05:01:49.703Z,0.00
2017-10-23T05:02:49.748Z,0.00
2017-10-23T05:03:49.855Z,0.00
2017-10-23T05:04:49.836Z,0.00
2017-10-23T05:05:49.883Z,0.00
2017-10-23T05:06:49.926Z,0.00
2017-10-23T05:07:49.973Z,0.00
2017-10-23T05:08:50.098Z,0.00
2017-10-23T05:09:50.064Z,0.00
2017-10-23T05:10:50.105Z,0.00
2017-10-23T05:11:50.160Z,0.00
2017-10-23T05:12:50.196Z,0.00
2017-10-23T05:13:50.309Z,0.00
2017-10-23T05:14:50.350Z,0.00
2017-10-23T05:15:50.331Z,0.00
2017-10-23T05:16:50.379Z,0.00
2017-10-23T05:17:50.422Z,0.00
2017-10-23T05:18:50.467Z,0.00
2017-10-23T05:19:50.575Z,0.00
2017-10-23T05:20:50.560Z,0.00
2017-10-23T05:21:50.602Z,0.00
2017-10-23T05:22:50.646Z,0.00
2017-10-23T05:23:50.697Z,0.00
2017-10-23T05:24:50.803Z,0.00
2017-10-23T05:25:50.784Z,0.00
2017-10-23T05:26:50.828Z,0.00
2017-10-23T05:27:50.876Z,0.00
2017-10-23T05:28:50.916Z,0.00
2017-10-23T05:29:51.028Z,0.00
2017-10-23T05:30:51.072Z,0.00
2017-10-23T05:31:51.050Z,0.00
2017-10-23T05:32:51.100Z,0.00
2017-10-23T05:33:51.144Z,0.00
2017-10-23T05:34:51.270Z,0.00
2017-10-23T05:35:51.980Z,0.00
2017-10-23T05:36:51.981Z,0.00
2017-10-23T05:37:51.324Z,0.00
2017-10-23T05:38:51.369Z,0.00
2017-10-23T05:39:51.496Z,0.00
2017-10-23T05:40:51.458Z,0.00
2017-10-23T05:41:51.507Z,0.00
2017-10-23T05:42:51.546Z,0.00
2017-10-23T05:43:51.593Z,0.00
2017-10-23T05:44:51.716Z,0.00
2017-10-23T05:45:51.683Z,0.00
2017-10-23T05:46:51.727Z,0.00
2017-10-23T05:47:51.771Z,0.00
2017-10-23T05:48:51.818Z,0.00
2017-10-23T05:49:51.947Z,0.00
2017-10-23T05:50:51.909Z,0.00
2017-10-23T05:51:51.953Z,0.00
2017-10-23T05:52:51.996Z,0.00
2017-10-23T05:53:52.043Z,0.00
2017-10-23T05:54:52.570Z,5.63
2017-10-23T05:55:52.131Z,5.63
2017-10-23T05:56:52.188Z,5.63
2017-10-23T05:57:52.225Z,5.63
2017-10-23T05:58:52.269Z,5.63
2017-10-23T05:59:52.312Z,5.63
2017-10-23T06:00:52.423Z,5.63
2017-10-23T06:01:52.404Z,5.63
2017-10-23T06:02:52.448Z,5.63
2017-10-23T06:03:52.494Z,5.63
2017-10-23T06:04:52.542Z,5.63
2017-10-23T06:05:52.649Z,5.63
2017-10-23T06:06:52.629Z,5.63
2017-10-23T06:07:52.674Z,5.63
2017-10-23T06:08:52.723Z,11.25
2017-10-23T06:09:52.767Z,11.25
2017-10-23T06:10:52.878Z,11.25
2017-10-23T06:11:52.857Z,11.25
2017-10-23T06:12:52.901Z,11.25
2017-10-23T06:13:52.945Z,11.25
2017-10-23T06:14:52.992Z,11.25
2017-10-23T06:15:53.098Z,11.25
2017-10-23T06:16:53.080Z,11.25
2017-10-23T06:17:53.129Z,11.25
2017-10-23T06:18:53.167Z,16.88
2017-10-23T06:19:53.215Z,16.88
2017-10-23T06:20:53.341Z,16.88
2017-10-23T06:21:53.305Z,16.88
2017-10-23T06:22:53.353Z,16.88
2017-10-23T06:23:53.393Z,22.50
2017-10-23T06:24:53.448Z,28.13
2017-10-23T06:25:53.569Z,28.13
2017-10-23T06:26:53.531Z,28.13
2017-10-23T06:27:53.578Z,33.75
2017-10-23T06:28:53.620Z,33.75
2017-10-23T06:29:53.665Z,33.75
2017-10-23T06:30:53.774Z,39.38
2017-10-23T06:31:53.820Z,39.38
2017-10-23T06:32:53.801Z,45.00
2017-10-23T06:33:53.847Z,45.00
2017-10-23T06:34:53.891Z,50.63
2017-10-23T06:35:53.936Z,50.63
2017-10-23T06:36:54.046Z,56.25
2017-10-23T06:37:54.026Z,56.25
2017-10-23T06:38:54.069Z,56.25
2017-10-23T06:39:54.118Z,61.88
2017-10-23T06:40:54.160Z,61.88
2017-10-23T06:41:54.271Z,61.88
2017-10-23T06:42:54.251Z,61.88
2017-10-23T06:43:54.298Z,61.88
2017-10-23T06:44:54.342Z,56.25
2017-10-23T06:45:54.388Z,50.63
2017-10-23T06:46:54.496Z,45.00
2017-10-23T06:47:54.482Z,39.38
2017-10-23T06:48:54.523Z,45.00
2017-10-23T06:49:54.570Z,39.38
2017-10-23T06:50:54.614Z,39.38
2017-10-23T06:51:54.730Z,45.00
2017-10-23T06:52:54.704Z,45.00
2017-10-23T06:53:54.749Z,45.00
2017-10-23T06:54:54.796Z,39.38
2017-10-23T06:55:54.840Z,39.38
2017-10-23T06:56:54.968Z,39.38
2017-10-23T06:57:54.933Z,45.00
2017-10-23T06:58:54.977Z,50.63
2017-10-23T06:59:55.024Z,50.63
2017-10-23T07:00:55.070Z,50.63
2017-10-23T07:01:55.178Z,50.63
2017-10-23T07:02:55.220Z,56.25
2017-10-23T07:03:55.205Z,61.88
2017-10-23T07:04:55.250Z,50.63
2017-10-23T07:05:55.291Z,39.38
2017-10-23T07:06:55.337Z,45.00
2017-10-23T07:07:55.556Z,50.63
2017-10-23T07:08:55.430Z,45.00
2017-10-23T07:09:55.472Z,39.38
2017-10-23T07:10:55.516Z,45.00
2017-10-23T07:11:55.567Z,50.63
2017-10-23T07:12:55.758Z,56.25
2017-10-23T07:13:55.653Z,61.88
2017-10-23T07:14:55.700Z,56.25
2017-10-23T07:15:55.744Z,56.25
2017-10-23T07:16:55.788Z,56.25
2017-10-23T07:17:55.898Z,56.25
2017-10-23T07:18:55.942Z,50.63
2017-10-23T07:19:55.928Z,39.38
2017-10-23T07:20:55.969Z,33.75
2017-10-23T07:21:56.016Z,33.75
2017-10-23T07:22:56.060Z,39.38
2017-10-23T07:23:56.170Z,39.38
2017-10-23T07:24:56.154Z,39.38
2017-10-23T07:25:56.195Z,33.75
2017-10-23T07:26:56.242Z,33.75
2017-10-23T07:27:56.285Z,33.75
2017-10-23T07:28:56.409Z,28.13
2017-10-23T07:29:56.376Z,33.75
2017-10-23T07:30:56.421Z,33.75
2017-10-23T07:31:56.467Z,33.75
2017-10-23T07:32:56.516Z,39.38
2017-10-23T07:33:56.622Z,61.88
2017-10-23T07:34:56.604Z,78.75
2017-10-23T07:35:56.648Z,73.13
2017-10-23T07:36:56.697Z,61.88
2017-10-23T07:37:56.737Z,50.63
2017-10-23T07:38:56.844Z,56.25
2017-10-23T07:39:56.834Z,67.50
2017-10-23T07:40:56.874Z,67.50
2017-10-23T07:41:56.918Z,56.25
2017-10-23T07:42:56.962Z,56.25
2017-10-23T07:43:57.072Z,73.13
2017-10-23T07:44:57.055Z,84.38
2017-10-23T07:45:57.099Z,90.00
2017-10-23T07:46:57.143Z,84.38
2017-10-23T07:47:57.198Z,84.38
2017-10-23T07:48:57.315Z,90.00
2017-10-23T07:49:57.282Z,84.38
2017-10-23T07:50:57.327Z,84.38
2017-10-23T07:51:57.369Z,78.75
2017-10-23T07:52:57.418Z,84.38
2017-10-23T07:53:57.526Z,112.50
2017-10-23T07:54:57.506Z,118.13
2017-10-23T07:55:57.551Z,146.25
2017-10-23T07:56:57.594Z,157.50
2017-10-23T07:57:57.641Z,174.38
2017-10-23T07:58:57.759Z,180.00
2017-10-23T07:59:57.732Z,146.25
2017-10-23T08:00:57.776Z,151.88
2017-10-23T08:01:57.823Z,163.13
2017-10-23T08:02:57.866Z,185.63
2017-10-23T08:03:57.989Z,180.00
2017-10-23T08:04:57.958Z,196.88
2017-10-23T08:05:58.004Z,196.88
2017-10-23T08:06:58.045Z,185.63
2017-10-23T08:07:58.092Z,185.63
2017-10-23T08:08:58.202Z,208.13
2017-10-23T08:09:58.246Z,225.00
2017-10-23T08:10:58.227Z,236.25
2017-10-23T08:11:58.274Z,236.25
2017-10-23T08:12:58.318Z,230.63
2017-10-23T08:13:58.363Z,236.25
2017-10-23T08:14:58.471Z,258.75
2017-10-23T08:15:58.452Z,275.63
2017-10-23T08:16:58.499Z,258.75
2017-10-23T08:17:58.548Z,213.75
2017-10-23T08:18:58.590Z,168.75
2017-10-23T08:19:58.713Z,146.25
2017-10-23T08:20:58.680Z,112.50
2017-10-23T08:21:58.731Z,106.88
2017-10-23T08:22:58.774Z,118.13
2017-10-23T08:23:58.815Z,151.88
2017-10-23T08:24:58.946Z,185.63
2017-10-23T08:25:58.906Z,208.13
2017-10-23T08:26:58.952Z,230.63
2017-10-23T08:27:58.998Z,258.75
2017-10-23T08:28:59.044Z,258.75
2017-10-23T08:29:59.175Z,225.00
2017-10-23T08:30:59.134Z,185.63
2017-10-23T08:31:59.186Z,213.75
2017-10-23T08:32:59.225Z,230.63
2017-10-23T08:33:59.273Z,219.38
2017-10-23T08:34:59.381Z,208.13
2017-10-23T08:35:59.425Z,230.63
2017-10-23T08:36:59.411Z,253.13
2017-10-23T08:37:59.453Z,286.88
2017-10-23T08:38:59.497Z,315.00
2017-10-23T08:39:59.543Z,326.25
2017-10-23T08:40:59.651Z,309.38
2017-10-23T08:41:59.634Z,281.25
2017-10-23T08:42:59.680Z,258.75
2017-10-23T08:43:59.730Z,275.63
2017-10-23T08:44:59.769Z,270.00
2017-10-23T08:45:59.879Z,230.63
2017-10-23T08:46:59.860Z,213.75
2017-10-23T08:47:59.906Z,202.50
2017-10-23T08:48:59.953Z,236.25
2017-10-23T08:49:59.997Z,219.38
2017-10-23T08:51:00.136Z,230.63
2017-10-23T08:52:00.088Z,241.88
2017-10-23T08:53:00.142Z,219.38
2017-10-23T08:54:00.181Z,247.50
2017-10-23T08:55:00.231Z,247.50
2017-10-23T08:56:00.338Z,258.75
2017-10-23T08:57:00.376Z,292.50
2017-10-23T08:58:00.362Z,315.00
2017-10-23T08:59:00.407Z,331.88
2017-10-23T09:00:00.453Z,337.50
2017-10-23T09:01:00.497Z,348.75
2017-10-23T09:02:00.607Z,309.38
2017-10-23T09:03:00.588Z,270.00
2017-10-23T09:04:00.637Z,230.63
2017-10-23T09:05:00.684Z,219.38
2017-10-23T09:06:00.728Z,253.13
2017-10-23T09:07:00.836Z,286.88
2017-10-23T09:08:00.818Z,292.50
2017-10-23T09:09:00.863Z,258.75
2017-10-23T09:10:00.909Z,258.75
2017-10-23T09:11:00.956Z,253.13
2017-10-23T09:12:01.067Z,247.50
2017-10-23T09:13:01.047Z,253.13
2017-10-23T09:14:01.091Z,303.75
2017-10-23T09:15:01.141Z,343.13
2017-10-23T09:16:01.184Z,371.25
2017-10-23T09:17:01.302Z,376.88
2017-10-23T09:18:01.274Z,360.00
2017-10-23T09:19:01.319Z,320.63
2017-10-23T09:20:01.365Z,320.63
2017-10-23T09:21:01.413Z,331.88
2017-10-23T09:22:01.520Z,331.88
2017-10-23T09:23:01.503Z,320.63
2017-10-23T09:24:01.550Z,298.13
2017-10-23T09:25:01.612Z,275.63
2017-10-23T09:26:01.645Z,270.00
2017-10-23T09:27:01.784Z,247.50
2017-10-23T09:28:01.731Z,258.75
2017-10-23T09:29:01.778Z,258.75
2017-10-23T09:30:01.825Z,270.00
2017-10-23T09:31:01.869Z,219.38
2017-10-23T09:32:01.998Z,180.00
2017-10-23T09:33:01.961Z,191.25
2017-10-23T09:34:02.006Z,191.25
2017-10-23T09:35:02.053Z,230.63
2017-10-23T09:36:02.099Z,258.75
2017-10-23T09:37:02.210Z,270.00
2017-10-23T09:38:02.259Z,270.00
2017-10-23T09:39:02.236Z,264.38
2017-10-23T09:40:02.992Z,253.13
2017-10-23T09:41:02.333Z,247.50
2017-10-23T09:42:02.374Z,230.63
2017-10-23T09:43:02.482Z,230.63
2017-10-23T09:44:02.465Z,241.88
2017-10-23T09:45:02.512Z,253.13
2017-10-23T09:46:02.555Z,258.75
2017-10-23T09:47:02.601Z,270.00
2017-10-23T09:48:02.737Z,298.13
2017-10-23T09:49:02.696Z,309.38
2017-10-23T09:50:02.740Z,303.75
2017-10-23T09:51:02.785Z,298.13
2017-10-23T09:52:02.833Z,298.13
2017-10-23T09:53:02.943Z,298.13
2017-10-23T09:54:02.987Z,281.25
2017-10-23T09:55:02.975Z,270.00
2017-10-23T09:56:03.014Z,225.00
2017-10-23T09:57:03.061Z,196.88
2017-10-23T09:58:03.110Z,196.88
2017-10-23T09:59:03.218Z,191.25
2017-10-23T10:00:03.198Z,185.63
2017-10-23T10:01:03.251Z,202.50
2017-10-23T10:02:03.296Z,236.25
2017-10-23T10:03:03.336Z,275.63
2017-10-23T10:04:03.446Z,270.00
2017-10-23T10:05:03.429Z,258.75
2017-10-23T10:06:03.473Z,241.88
2017-10-23T10:07:03.517Z,270.00
2017-10-23T10:08:03.563Z,247.50
2017-10-23T10:09:03.674Z,264.38
2017-10-23T10:10:03.660Z,270.00
2017-10-23T10:11:03.701Z,253.13
2017-10-23T10:12:03.748Z,236.25
2017-10-23T10:13:03.791Z,264.38
2017-10-23T10:14:03.906Z,264.38
2017-10-23T10:15:03.885Z,247.50
2017-10-23T10:16:03.929Z,264.38
2017-10-23T10:17:03.977Z,270.00
2017-10-23T10:18:04.023Z,253.13
2017-10-23T10:19:04.130Z,270.00
2017-10-23T10:20:04.113Z,281.25
2017-10-23T10:21:04.163Z,270.00
2017-10-23T10:22:04.207Z,286.88
2017-10-23T10:23:04.251Z,264.38
2017-10-23T10:24:04.369Z,230.63
2017-10-23T10:25:04.344Z,225.00
2017-10-23T10:26:04.388Z,208.13
2017-10-23T10:27:04.438Z,191.25
2017-10-23T10:28:04.481Z,180.00
2017-10-23T10:29:04.602Z,180.00
2017-10-23T10:30:04.572Z,202.50
2017-10-23T10:31:04.619Z,247.50
2017-10-23T10:32:04.668Z,303.75
2017-10-23T10:33:04.710Z,326.25
2017-10-23T10:34:06.640Z,326.25
2017-10-23T10:35:04.866Z,320.63
2017-10-23T10:36:04.847Z,320.63
2017-10-23T10:37:04.894Z,320.63
2017-10-23T10:38:04.943Z,303.75
2017-10-23T10:39:04.987Z,286.88
2017-10-23T10:40:05.103Z,275.63
2017-10-23T10:41:05.083Z,253.13
2017-10-23T10:42:05.124Z,241.88
2017-10-23T10:43:05.169Z,230.63
2017-10-23T10:44:05.219Z,247.50
2017-10-23T10:45:05.339Z,264.38
2017-10-23T10:46:05.308Z,275.63
2017-10-23T10:47:05.352Z,270.00
2017-10-23T10:48:05.402Z,264.38
2017-10-23T10:49:05.448Z,258.75
2017-10-23T10:50:05.578Z,258.75
2017-10-23T10:51:05.537Z,247.50
2017-10-23T10:52:05.584Z,253.13
2017-10-23T10:53:05.628Z,253.13
2017-10-23T10:54:05.675Z,236.25
2017-10-23T10:55:05.811Z,230.63
2017-10-23T10:56:05.767Z,236.25
2017-10-23T10:57:05.812Z,230.63
2017-10-23T10:58:05.858Z,219.38
2017-10-23T10:59:05.902Z,208.13
2017-10-23T11:00:06.031Z,202.50
2017-10-23T11:01:05.995Z,196.88
2017-10-23T11:02:06.041Z,191.25
2017-10-23T11:03:06.086Z,185.63
2017-10-23T11:04:06.139Z,196.88
2017-10-23T11:05:06.243Z,219.38
2017-10-23T11:06:06.345Z,247.50
2017-10-23T11:07:06.271Z,270.00
2017-10-23T11:08:06.319Z,286.88
2017-10-23T11:09:06.368Z,286.88
2017-10-23T11:10:06.410Z,286.88
2017-10-23T11:11:06.541Z,281.25
2017-10-23T11:12:06.501Z,270.00
2017-10-23T11:13:06.547Z,253.13
2017-10-23T11:14:06.595Z,247.50
2017-10-23T11:15:06.639Z,241.88
2017-10-23T11:16:06.748Z,236.25
2017-10-23T11:17:06.732Z,225.00
2017-10-23T11:18:06.776Z,213.75
2017-10-23T11:19:06.829Z,208.13
2017-10-23T11:20:06.874Z,213.75
2017-10-23T11:21:06.985Z,241.88
2017-10-23T11:22:06.960Z,270.00
2017-10-23T11:23:07.006Z,315.00
2017-10-23T11:24:07.054Z,320.63
2017-10-23T11:25:07.097Z,320.63
2017-10-23T11:26:07.568Z,303.75
2017-10-23T11:27:07.191Z,292.50
2017-10-23T11:28:07.238Z,326.25
2017-10-23T11:29:07.283Z,326.25
2017-10-23T11:30:07.328Z,309.38
2017-10-23T11:31:07.438Z,303.75
2017-10-23T11:32:07.421Z,315.00
2017-10-23T11:33:07.468Z,320.63
2017-10-23T11:34:07.517Z,303.75
2017-10-23T11:35:07.559Z,264.38
2017-10-23T11:36:07.672Z,247.50
2017-10-23T11:37:07.652Z,253.13
2017-10-23T11:38:07.701Z,264.38
2017-10-23T11:39:07.748Z,270.00
2017-10-23T11:40:07.815Z,275.63
2017-10-23T11:41:07.916Z,292.50
2017-10-23T11:42:07.889Z,292.50
2017-10-23T11:43:07.930Z,258.75
2017-10-23T11:44:07.982Z,219.38
2017-10-23T11:45:08.023Z,202.50
2017-10-23T11:46:08.151Z,196.88
2017-10-23T11:47:08.114Z,185.63
2017-10-23T11:48:08.163Z,174.38
2017-10-23T11:49:08.207Z,157.50
2017-10-23T11:50:08.253Z,151.88
2017-10-23T11:51:08.385Z,151.88
2017-10-23T11:52:08.344Z,168.75
2017-10-23T11:53:08.391Z,185.63
2017-10-23T11:54:08.444Z,208.13
2017-10-23T11:55:08.487Z,236.25
2017-10-23T11:56:08.597Z,258.75
2017-10-23T11:57:08.581Z,264.38
2017-10-23T11:58:08.621Z,270.00
2017-10-23T11:59:08.668Z,292.50
2017-10-23T12:00:08.718Z,331.88
2017-10-23T12:01:08.852Z,326.25
2017-10-23T12:02:08.811Z,315.00
2017-10-23T12:03:08.852Z,326.25
2017-10-23T12:04:08.900Z,326.25
2017-10-23T12:05:08.946Z,326.25
2017-10-23T12:06:09.070Z,320.63
2017-10-23T12:07:09.036Z,320.63
2017-10-23T12:08:09.086Z,303.75
2017-10-23T12:09:09.130Z,292.50
2017-10-23T12:10:09.177Z,281.25
2017-10-23T12:11:09.314Z,264.38
2017-10-23T12:12:09.267Z,258.75
2017-10-23T12:13:09.314Z,253.13
2017-10-23T12:14:09.361Z,253.13
2017-10-23T12:15:09.421Z,275.63
2017-10-23T12:16:09.520Z,275.63
2017-10-23T12:17:09.501Z,264.38
2017-10-23T12:18:09.548Z,270.00
2017-10-23T12:19:09.598Z,281.25
2017-10-23T12:20:09.638Z,281.25
2017-10-23T12:21:09.772Z,275.63
2017-10-23T12:22:09.734Z,275.63
2017-10-23T12:23:09.775Z,281.25
2017-10-23T12:24:09.821Z,298.13
2017-10-23T12:25:09.871Z,331.88
2017-10-23T12:26:09.999Z,365.63
2017-10-23T12:27:09.963Z,360.00
2017-10-23T12:28:10.011Z,382.50
2017-10-23T12:29:10.055Z,399.38
2017-10-23T12:30:10.102Z,410.63
2017-10-23T12:31:10.210Z,433.13
2017-10-23T12:32:10.259Z,444.38
2017-10-23T12:33:10.242Z,421.88
2017-10-23T12:34:10.291Z,382.50
2017-10-23T12:35:10.335Z,365.63
2017-10-23T12:36:10.381Z,371.25
2017-10-23T12:37:10.507Z,371.25
2017-10-23T12:38:10.473Z,371.25
2017-10-23T12:39:10.516Z,360.00
2017-10-23T12:40:10.564Z,365.63
2017-10-23T12:41:10.615Z,376.88
2017-10-23T12:42:10.782Z,376.88
2017-10-23T12:43:10.706Z,382.50
2017-10-23T12:44:10.750Z,393.75
2017-10-23T12:45:10.800Z,405.00
2017-10-23T12:46:10.844Z,399.38
2017-10-23T12:47:10.954Z,376.88
2017-10-23T12:48:10.944Z,360.00
2017-10-23T12:49:10.986Z,343.13
2017-10-23T12:50:11.030Z,320.63
2017-10-23T12:51:11.077Z,309.38
2017-10-23T12:52:11.187Z,298.13
2017-10-23T12:53:11.173Z,275.63
2017-10-23T12:54:11.217Z,247.50
2017-10-23T12:55:11.261Z,225.00